Pyatt, AR (72672)

7:02 PM CDT on March 28, 2015 (GMT -0500)
Marion County Regional | | Change Station
CLOSE
Current Station
Airport
Location: Flippin,
Elevation: 715 ft
Nearby Weather Stations
Active Advisory: Frost Advisory

Elev 715 ft 36.29 °N, 92.59 °W | Updated 7 minutes ago

Mostly Cloudy
Mostly Cloudy
39 °F
Feels Like 32 °F
N
10
Wind Variable Wind from East
Gusts 17 mph

Today
High -- | Low -- °F
--% Chance of Precip.
Yesterday
High -- | Low -- °F
Precip. -- in
7:03 AM 7:29 PM
Waxing Gibbous, 66% visible
Pressure 30.22 in
Visibility 10.0 miles
Clouds Overcast 5000 ft
Windchill 32 °F
Dew Point 28 °F
Humidity 65%
Rainfall 0.00 in
Snow Depth Not available.
UV 0 out of 12
Pollen 8.50 out of 12
Air Quality Not available.
Flu Activity Not available.
METAR KFLP 282355Z 09009G15KT 10SM OVC050 04/M02 A3022 RMK AO1 10050 20040 400800030 52003

More Conditions Fewer Conditions

Pressure 30.22 in
Visibility 10.0 miles
Clouds Overcast 5000 ft
Windchill 32 °F
Dew Point 28 °F
Humidity 65%
Rainfall 0.00 in
Snow Depth Not available.
UV 0 out of 12
Pollen 8.50 out of 12
Air Quality Not available.
Flu Activity Not available.
METAR KFLP 282355Z 09009G15KT 10SM OVC050 04/M02 A3022 RMK AO1 10050 20040 400800030 52003

More Conditions Fewer Conditions

10-Day Weather Forecast

Almanac

Astronomy

Mar. 28, 2015 Rise Set
Actual Time
Civil Twilight
Nautical Twilight
Astronomical Twilight
Moon
Length of Visible Light
Length of Day
Tomorrow will be .
, % of the Moon is Illuminated

Today's Extremes

State Highs State Lows

Community

WunderPhotos

Upload Photos

1,809,130 photos uploaded!

WunderBlogs® & News

Nearby

Air Quality

  Air Quality AQ Index Pollutant
Not available.

Snow Depth

Station Depth Elevation

Earthquake Activity

City Distance Mag. Time & Date
Minimum magnitude displayed is 2.5.

Coastal Water Temperatures

Place Temperature

Stations

Nearby Weather Stations

Station Location Temp. Windchill Dew Point Humidity Wind Precip. Elev Updated Type
                   
Frost Advisory
Statement as of 2:21 PM CDT on March 28, 2015

... Frost advisory in effect from 1 am to 10 am CDT Sunday...

The National Weather Service in Little Rock has issued a frost
advisory... which is in effect from 1 am to 10 am CDT Sunday.

* Areas affected... northeast Arkansas

* temperature... 33 degrees to 36 degrees.

* Impacts... tender vegetation may be damaged or killed.



Precautionary/preparedness actions...

A frost advisory means that frost is possible. Sensitive outdoor
plants may be killed if left uncovered.